Ashtabula, Ohio
Current Conditions -  °F | °C
As of 9:06 AM on Saturday 22 Nov 2014 (Local Time) from KHZY Reporting Station
Freezing Rain Freezing Rain  
Wind Chill: 19°   Ceiling: 2300
Heat Index: 29°   Visibility: 7mi
Dew Point: 20°   Wind: 13mph
Humidity: 69%   Direction: 190°S
Pressure: 30.22"   Gusts: NA
Location:  41.89°N, 80.79°W
Report Text: KHZY 221406Z AUTO 19011KT 7SM -FZRA FEW017 OVC023 M02/M07 A3022 RMK AO2 UPE00FZRAB00 P0001 I1001 T10171067
Loading
Personal Weather Stations






























Interactive Weather Map New forecast layout! Learn more

10-Day Weather Forecast

Advertisements
Track Severe Weather on mobile